Time;durP1;ratioP1;P1;durP2;ratioP2;P2;SDS_P1;SDS_P2;PMS_P1;PMS_P2;Temp;Humidity;BMP_temperature;BMP_pressure;BME280_temperature;BME280_humidity;BME280_pressure;Samples;Min_cycle;Max_cycle;Signal;HPM_P1;HPM_P2
2022/05/29 00:01:58;;;;;;;12.80;6.22;;;10.00;99.90;;;;;;5089051;27;20421;-71
2022/05/29 00:04:24;;;;;;;13.88;5.28;;;10.00;99.90;;;;;;5121762;27;20050;-71
2022/05/29 00:06:54;;;;;;;13.18;5.70;;;10.00;99.90;;;;;;5103746;27;20039;-71
2022/05/29 00:09:33;;;;;;;13.05;5.90;;;10.00;99.90;;;;;;5084768;27;20084;-71
2022/05/29 00:12:00;;;;;;;14.02;6.18;;;10.00;99.90;;;;;;5136184;27;20099;-71
2022/05/29 00:14:27;;;;;;;15.73;5.95;;;10.00;99.90;;;;;;5101298;27;20129;-71
2022/05/29 00:16:53;;;;;;;16.88;6.55;;;10.00;99.90;;;;;;5102087;27;20445;-71
2022/05/29 00:19:19;;;;;;;14.65;5.70;;;10.00;99.90;;;;;;5103215;27;20086;-71
2022/05/29 00:21:45;;;;;;;15.02;6.65;;;10.00;99.90;;;;;;5087815;27;20039;-71
2022/05/29 00:24:11;;;;;;;13.57;5.10;;;10.00;99.90;;;;;;5083278;27;20082;-72
2022/05/29 00:26:40;;;;;;;9.77;5.60;;;10.00;99.90;;;;;;5073491;27;20036;-71
2022/05/29 00:29:07;;;;;;;18.15;6.93;;;10.00;99.90;;;;;;5136526;27;20047;-71
2022/05/29 00:31:34;;;;;;;11.20;4.80;;;10.00;99.90;;;;;;5091242;27;20078;-71
2022/05/29 00:34:00;;;;;;;13.27;6.25;;;10.00;99.90;;;;;;5120287;27;20066;-72
2022/05/29 00:36:30;;;;;;;13.63;6.72;;;10.00;99.90;;;;;;5090606;27;20085;-71
2022/05/29 00:38:56;;;;;;;11.90;5.57;;;10.00;99.90;;;;;;5098623;27;20043;-71
2022/05/29 00:41:33;;;;;;;11.48;6.50;;;10.00;99.90;;;;;;5101294;27;20193;-71
2022/05/29 00:44:19;;;;;;;14.38;6.32;;;10.00;99.90;;;;;;5087264;27;20570;-71
2022/05/29 00:46:58;;;;;;;14.95;5.95;;;10.00;99.90;;;;;;5097803;27;20410;-70
2022/05/29 00:49:34;;;;;;;12.70;5.82;;;10.10;99.90;;;;;;5131747;27;20051;-70
2022/05/29 00:52:05;;;;;;;12.82;5.43;;;10.00;99.90;;;;;;5104961;27;20400;-71
2022/05/29 00:54:42;;;;;;;14.02;6.03;;;10.00;99.90;;;;;;5101600;27;20057;-71
2022/05/29 00:57:22;;;;;;;14.52;5.82;;;10.00;99.90;;;;;;5098021;27;20047;-71
2022/05/29 00:59:48;;;;;;;12.02;5.05;;;10.00;99.90;;;;;;5083757;27;20043;-71
2022/05/29 01:02:14;;;;;;;14.15;5.55;;;9.90;99.90;;;;;;5098573;27;20374;-71
2022/05/29 01:04:45;;;;;;;16.48;6.60;;;9.90;99.90;;;;;;5100262;27;20405;-71
2022/05/29 01:07:14;;;;;;;15.18;5.90;;;9.80;99.90;;;;;;5087729;27;20043;-71
2022/05/29 01:09:46;;;;;;;11.25;5.28;;;9.80;99.90;;;;;;5081894;27;20183;-71
2022/05/29 01:12:29;;;;;;;19.98;6.80;;;9.80;99.90;;;;;;5102600;27;20054;-71
2022/05/29 01:15:14;;;;;;;17.75;6.05;;;9.80;99.90;;;;;;5104640;27;20053;-71
2022/05/29 01:17:52;;;;;;;17.02;6.90;;;9.80;99.90;;;;;;5088387;27;20063;-71
2022/05/29 01:20:23;;;;;;;19.52;6.68;;;9.70;99.90;;;;;;5083056;27;20403;-71
2022/05/29 01:23:13;;;;;;;11.07;5.55;;;9.70;99.90;;;;;;5094514;27;20051;-71
2022/05/29 01:26:19;;;;;;;14.13;5.95;;;9.80;99.90;;;;;;5101777;27;20054;-71
2022/05/29 01:28:53;;;;;;;14.65;6.35;;;9.80;99.90;;;;;;5085371;27;20467;-71
2022/05/29 01:31:27;;;;;;;11.10;5.38;;;9.70;99.90;;;;;;5088288;27;20043;-71
2022/05/29 01:33:56;;;;;;;13.65;5.25;;;9.70;99.90;;;;;;5089938;27;20112;-71
2022/05/29 01:36:34;;;;;;;19.17;6.22;;;9.70;99.90;;;;;;5102409;27;20139;-71
2022/05/29 01:39:07;;;;;;;15.02;5.93;;;9.70;99.90;;;;;;5102924;27;20070;-71
2022/05/29 01:41:42;;;;;;;16.50;6.32;;;9.80;99.90;;;;;;5102182;27;20547;-71
2022/05/29 01:44:19;;;;;;;13.35;5.80;;;9.70;99.90;;;;;;5133344;27;20113;-71
2022/05/29 01:46:54;;;;;;;14.80;6.57;;;9.70;99.90;;;;;;5085395;27;20044;-71
2022/05/29 01:49:23;;;;;;;17.73;6.30;;;9.70;99.90;;;;;;5119920;27;20055;-70
2022/05/29 01:52:18;;;;;;;12.70;6.25;;;9.70;99.90;;;;;;5137247;27;20039;-71
2022/05/29 01:54:50;;;;;;;13.80;5.63;;;9.70;99.90;;;;;;5087546;27;20057;-70
2022/05/29 01:57:22;;;;;;;14.07;5.32;;;9.70;99.90;;;;;;5105025;28;20098;-71
2022/05/29 01:59:54;;;;;;;15.57;7.03;;;9.70;99.90;;;;;;5083333;28;20039;-71
2022/05/29 02:02:28;;;;;;;18.52;6.15;;;9.70;99.90;;;;;;5095629;28;20082;-71
2022/05/29 02:04:59;;;;;;;14.77;5.43;;;9.70;99.90;;;;;;5131192;27;20313;-71
2022/05/29 02:10:30;;;;;;;19.25;6.65;;;9.70;99.90;;;;;;5104752;27;20746;-73
2022/05/29 02:13:05;;;;;;;12.15;5.72;;;9.70;99.90;;;;;;5101792;28;20051;-70
2022/05/29 02:15:41;;;;;;;15.95;5.85;;;9.70;99.90;;;;;;5123905;27;20050;-71
2022/05/29 02:18:15;;;;;;;17.20;6.85;;;9.70;99.90;;;;;;5135838;27;20654;-71
2022/05/29 02:20:45;;;;;;;14.43;6.45;;;9.60;99.90;;;;;;5099118;28;20039;-73
2022/05/29 02:23:34;;;;;;;15.68;6.38;;;9.70;99.90;;;;;;5141030;27;20309;-72
2022/05/29 02:26:03;;;;;;;15.35;6.18;;;9.70;99.90;;;;;;5089721;28;20055;-85
2022/05/29 02:28:40;;;;;;;12.55;5.60;;;9.60;99.90;;;;;;5107889;27;20135;-83
2022/05/29 02:31:23;;;;;;;14.20;6.32;;;9.60;99.90;;;;;;5095267;28;20116;-73
2022/05/29 02:34:00;;;;;;;19.50;6.40;;;9.60;99.90;;;;;;5122820;27;20115;-73
2022/05/29 02:36:35;;;;;;;13.52;6.00;;;9.70;99.90;;;;;;5070727;27;20051;-73
2022/05/29 02:39:23;;;;;;;19.65;6.43;;;9.60;99.90;;;;;;5105716;27;20122;-73
2022/05/29 02:42:13;;;;;;;12.27;5.95;;;9.60;99.90;;;;;;5124879;27;20054;-73
2022/05/29 02:44:51;;;;;;;;;;;9.60;99.90;;;;;;5101186;28;20042;-72
2022/05/29 02:47:33;;;;;;;11.82;5.22;;;9.60;99.90;;;;;;5095553;27;19948;-72
2022/05/29 02:50:05;;;;;;;20.42;6.68;;;9.60;99.90;;;;;;5074418;28;20425;-73
2022/05/29 02:52:31;;;;;;;16.25;5.32;;;9.60;99.90;;;;;;5086512;27;20179;-72
2022/05/29 02:54:58;;;;;;;16.85;6.20;;;9.60;99.90;;;;;;5093144;28;20051;-71
2022/05/29 02:57:23;;;;;;;15.52;6.88;;;9.60;99.90;;;;;;5085004;27;20062;-71
2022/05/29 02:59:54;;;;;;;12.60;5.20;;;9.60;99.90;;;;;;5093023;28;20039;-71
2022/05/29 03:02:38;;;;;;;;;;;9.60;99.90;;;;;;5088943;28;20051;-72
2022/05/29 03:05:10;;;;;;;16.52;5.70;;;9.60;99.90;;;;;;5094385;27;19972;-73
2022/05/29 03:08:02;;;;;;;16.08;6.28;;;9.60;99.90;;;;;;5111025;27;20126;-72
2022/05/29 03:10:45;;;;;;;11.95;5.22;;;9.60;99.90;;;;;;5099892;27;20101;-72
2022/05/29 03:13:40;;;;;;;12.30;5.00;;;9.60;99.90;;;;;;5088276;28;20134;-72
2022/05/29 03:16:26;;;;;;;15.93;5.78;;;9.60;99.90;;;;;;5089454;28;20052;-71
2022/05/29 03:19:01;;;;;;;13.30;6.15;;;9.50;99.90;;;;;;5131375;27;20498;-72
2022/05/29 03:21:32;;;;;;;13.88;6.10;;;9.50;99.90;;;;;;5102097;27;20731;-72
2022/05/29 03:24:29;;;;;;;13.65;6.05;;;9.50;99.90;;;;;;5120476;27;20128;-72
2022/05/29 03:27:12;;;;;;;10.73;4.97;;;9.50;99.90;;;;;;5141284;27;20074;-70
2022/05/29 03:30:02;;;;;;;15.43;6.30;;;9.50;99.90;;;;;;5110751;27;20050;-72
2022/05/29 03:32:29;;;;;;;16.40;6.05;;;9.50;99.90;;;;;;5091933;28;20051;-84
2022/05/29 03:34:55;;;;;;;14.13;4.97;;;9.50;99.90;;;;;;5098648;27;20035;-72
2022/05/29 03:37:21;;;;;;;16.83;4.93;;;9.50;99.90;;;;;;5077198;28;20039;-71
2022/05/29 03:39:47;;;;;;;17.65;5.22;;;9.60;99.90;;;;;;5095843;27;20066;-72
2022/05/29 03:42:16;;;;;;;13.70;4.72;;;9.60;99.90;;;;;;5087157;28;20047;-73
2022/05/29 03:44:42;;;;;;;10.30;4.32;;;9.50;99.90;;;;;;5116896;27;20458;-73
2022/05/29 03:47:08;;;;;;;18.88;5.18;;;9.60;99.90;;;;;;5079103;27;20131;-73
2022/05/29 03:49:34;;;;;;;9.77;4.50;;;9.50;99.90;;;;;;5126129;27;20642;-72
2022/05/29 03:52:01;;;;;;;14.75;4.45;;;9.50;99.90;;;;;;5078218;27;20039;-72
2022/05/29 03:54:27;;;;;;;13.73;4.45;;;9.50;99.90;;;;;;5080611;28;20489;-71
2022/05/29 03:56:52;;;;;;;13.55;4.10;;;9.60;99.90;;;;;;5106235;27;20130;-72
2022/05/29 03:59:18;;;;;;;13.93;4.97;;;9.60;99.90;;;;;;5086538;27;20130;-72
2022/05/29 04:01:44;;;;;;;12.82;4.55;;;9.60;99.90;;;;;;5064452;28;20558;-71
2022/05/29 04:04:10;;;;;;;15.20;4.80;;;9.60;99.90;;;;;;5101689;28;20122;-71
2022/05/29 04:06:37;;;;;;;13.95;4.70;;;9.70;99.90;;;;;;5112957;27;20524;-71
2022/05/29 04:12:04;;;;;;;9.98;4.95;;;9.70;99.90;;;;;;5143369;27;20544;-72
2022/05/29 04:14:31;;;;;;;14.93;4.90;;;9.70;99.90;;;;;;5103865;27;20074;-72
2022/05/29 04:16:57;;;;;;;13.18;4.30;;;9.70;99.90;;;;;;5081246;27;20050;-72
2022/05/29 04:19:23;;;;;;;13.30;4.25;;;9.70;99.90;;;;;;5096092;28;20047;-71
2022/05/29 04:21:49;;;;;;;12.43;4.38;;;9.70;99.90;;;;;;5082816;27;20099;-71
2022/05/29 04:24:20;;;;;;;15.20;4.15;;;9.80;99.90;;;;;;5085338;28;20031;-71
2022/05/29 04:26:48;;;;;;;13.48;4.60;;;9.80;99.90;;;;;;5089172;27;20038;-71
2022/05/29 04:29:20;;;;;;;15.30;5.35;;;9.80;99.90;;;;;;5075073;27;20047;-71
2022/05/29 04:34:31;;;;;;;8.10;4.00;;;9.80;99.90;;;;;;5077353;27;20058;-71
2022/05/29 04:36:57;;;;;;;15.13;4.75;;;9.80;99.90;;;;;;5127756;27;20070;-72
2022/05/29 04:39:24;;;;;;;10.63;3.78;;;9.80;99.90;;;;;;5069472;27;20401;-72
2022/05/29 04:41:50;;;;;;;12.65;4.60;;;9.80;99.90;;;;;;5101754;27;20058;-72
2022/05/29 04:44:16;;;;;;;10.02;3.75;;;9.80;99.90;;;;;;5076096;27;20518;-71
2022/05/29 04:46:42;;;;;;;10.02;4.60;;;9.80;99.90;;;;;;5091601;27;20047;-72
2022/05/29 04:49:08;;;;;;;13.70;4.18;;;9.80;99.90;;;;;;5099628;28;20038;-71
2022/05/29 04:51:33;;;;;;;10.68;3.72;;;9.80;99.90;;;;;;5128468;27;20039;-72
2022/05/29 04:54:02;;;;;;;10.95;3.85;;;9.80;99.90;;;;;;5098371;27;20043;-71
2022/05/29 04:56:28;;;;;;;9.82;3.97;;;9.80;99.90;;;;;;5099505;28;20131;-72
2022/05/29 04:58:54;;;;;;;12.43;4.10;;;9.80;99.90;;;;;;5099201;27;20122;-71
2022/05/29 05:01:20;;;;;;;11.93;4.22;;;9.90;99.90;;;;;;5071216;28;20047;-71
2022/05/29 05:03:45;;;;;;;13.02;4.15;;;9.90;99.90;;;;;;5100895;28;20046;-72
2022/05/29 05:06:11;;;;;;;13.38;3.80;;;9.90;99.90;;;;;;5084854;27;20041;-72
2022/05/29 05:08:37;;;;;;;11.10;3.55;;;9.90;99.90;;;;;;5111479;27;20118;-73
2022/05/29 05:11:05;;;;;;;11.50;4.05;;;9.90;99.90;;;;;;5072113;28;20052;-72
2022/05/29 05:13:31;;;;;;;11.48;3.60;;;9.90;99.90;;;;;;5137915;27;20084;-72
2022/05/29 05:16:01;;;;;;;10.40;3.83;;;10.00;99.90;;;;;;5092661;28;20043;-73
2022/05/29 05:18:28;;;;;;;11.90;3.85;;;9.90;99.90;;;;;;5092777;27;20085;-72
2022/05/29 05:20:53;;;;;;;13.27;4.43;;;9.90;99.90;;;;;;5060160;28;20035;-73
2022/05/29 05:23:19;;;;;;;16.45;4.28;;;9.90;99.90;;;;;;5074079;27;20134;-73
2022/05/29 05:25:45;;;;;;;11.88;4.13;;;9.80;99.90;;;;;;5090437;28;20074;-73
2022/05/29 05:28:11;;;;;;;14.80;4.65;;;9.80;99.90;;;;;;5073945;27;20067;-73
2022/05/29 05:30:37;;;;;;;12.68;4.00;;;9.80;99.90;;;;;;5101245;28;20564;-73
2022/05/29 05:33:03;;;;;;;15.07;4.38;;;9.80;99.90;;;;;;5090492;27;20046;-72
2022/05/29 05:35:28;;;;;;;16.20;3.78;;;9.80;99.90;;;;;;5086250;27;20139;-71
2022/05/29 05:37:55;;;;;;;11.32;3.88;;;9.80;99.90;;;;;;5089751;27;20125;-72
2022/05/29 05:40:21;;;;;;;16.50;3.95;;;9.80;99.90;;;;;;5086196;27;20490;-72
2022/05/29 05:42:47;;;;;;;14.75;4.75;;;9.80;99.90;;;;;;5083345;27;20027;-72
2022/05/29 05:45:13;;;;;;;14.82;4.43;;;9.90;99.90;;;;;;5080889;27;20182;-72
2022/05/29 05:47:39;;;;;;;14.50;4.35;;;9.90;99.90;;;;;;5099930;27;20069;-73
2022/05/29 05:50:06;;;;;;;17.73;4.60;;;10.00;99.90;;;;;;5094975;27;20477;-74
2022/05/29 05:52:32;;;;;;;11.93;4.88;;;10.10;99.90;;;;;;5062771;28;20047;-73
2022/05/29 05:54:58;;;;;;;19.02;5.30;;;10.20;99.90;;;;;;5084993;27;20397;-73
2022/05/29 05:57:24;;;;;;;13.38;4.78;;;10.30;99.90;;;;;;5095198;27;20047;-73
2022/05/29 05:59:50;;;;;;;11.98;4.57;;;10.40;99.90;;;;;;5080428;27;20047;-73
2022/05/29 06:02:16;;;;;;;16.00;4.95;;;10.50;99.90;;;;;;5083289;28;20035;-72
2022/05/29 06:04:43;;;;;;;14.35;4.10;;;10.50;99.90;;;;;;5070382;28;20308;-73
2022/05/29 06:07:10;;;;;;;17.08;4.65;;;10.60;99.90;;;;;;5091674;28;20548;-73
2022/05/29 06:09:36;;;;;;;11.38;4.20;;;10.60;99.90;;;;;;5079118;28;20482;-73
2022/05/29 06:12:03;;;;;;;15.45;4.30;;;10.60;99.90;;;;;;5079664;27;20047;-72
2022/05/29 06:14:30;;;;;;;13.57;4.10;;;10.60;99.90;;;;;;5093774;28;20047;-73
2022/05/29 06:16:58;;;;;;;11.50;3.40;;;10.60;99.90;;;;;;5094549;27;20257;-73
2022/05/29 06:19:24;;;;;;;13.80;3.67;;;10.70;99.90;;;;;;5079398;28;20058;-73
2022/05/29 06:21:50;;;;;;;15.48;4.18;;;10.60;99.90;;;;;;5100300;28;20039;-72
2022/05/29 06:24:15;;;;;;;12.63;3.70;;;10.70;99.90;;;;;;5097144;28;20036;-73
2022/05/29 06:26:41;;;;;;;14.65;3.75;;;10.70;99.90;;;;;;5101555;28;20507;-72
2022/05/29 06:29:08;;;;;;;13.35;3.90;;;10.70;99.90;;;;;;5070699;28;20088;-72
2022/05/29 06:31:34;;;;;;;16.48;3.42;;;10.70;99.90;;;;;;5095447;28;20075;-71
2022/05/29 06:33:59;;;;;;;11.95;3.60;;;10.70;99.90;;;;;;5131002;27;20285;-72
2022/05/29 06:36:26;;;;;;;15.20;4.20;;;10.70;99.90;;;;;;5092188;28;20043;-72
2022/05/29 06:38:53;;;;;;;15.35;4.10;;;10.70;99.90;;;;;;5075709;27;20039;-73
2022/05/29 06:41:22;;;;;;;13.52;4.20;;;10.70;99.90;;;;;;5103311;28;20304;-72
2022/05/29 06:43:50;;;;;;;17.50;4.00;;;10.60;99.90;;;;;;5096826;27;20090;-72
2022/05/29 06:46:17;;;;;;;15.27;3.28;;;10.60;99.90;;;;;;5092403;28;20046;-72
2022/05/29 06:48:42;;;;;;;15.38;3.50;;;10.50;99.90;;;;;;5111968;27;20051;-72
2022/05/29 06:51:22;;;;;;;18.42;3.97;;;10.50;99.90;;;;;;5136421;27;20630;-72
2022/05/29 06:54:00;;;;;;;16.52;3.85;;;10.50;99.90;;;;;;5109438;27;20044;-72
2022/05/29 06:56:26;;;;;;;14.88;4.20;;;10.60;99.90;;;;;;5100657;27;20576;-72
2022/05/29 06:58:54;;;;;;;13.85;4.25;;;10.60;99.90;;;;;;5067349;27;20042;-72
2022/05/29 07:06:59;;;;;;;14.38;3.47;;;10.60;99.90;;;;;;5100320;27;20050;-72
2022/05/29 07:09:31;;;;;;;14.52;3.40;;;10.50;99.90;;;;;;5101135;27;20047;-73
2022/05/29 07:12:02;;;;;;;14.40;4.13;;;10.50;99.90;;;;;;5111811;27;20047;-72
2022/05/29 07:14:28;;;;;;;12.88;2.97;;;10.50;99.90;;;;;;5143556;27;20091;-74
2022/05/29 07:16:54;;;;;;;14.10;3.53;;;10.50;99.90;;;;;;5099724;27;20124;-71
2022/05/29 07:19:20;;;;;;;17.25;3.90;;;10.50;99.90;;;;;;5080996;28;20127;-72
2022/05/29 07:21:46;;;;;;;14.02;4.38;;;10.60;99.90;;;;;;5103942;27;20306;-71
2022/05/29 07:24:12;;;;;;;19.17;4.20;;;10.60;99.90;;;;;;5077387;27;20370;-72
2022/05/29 07:26:38;;;;;;;19.80;4.38;;;10.60;99.90;;;;;;5112165;27;20126;-71
2022/05/29 07:29:04;;;;;;;17.35;3.60;;;10.70;99.90;;;;;;5088095;27;20251;-72
2022/05/29 07:31:30;;;;;;;20.60;3.95;;;10.70;99.90;;;;;;5122582;27;20050;-71
2022/05/29 07:33:57;;;;;;;14.00;3.85;;;10.70;99.90;;;;;;5083874;27;20118;-71
2022/05/29 07:36:26;;;;;;;15.75;3.78;;;10.80;99.90;;;;;;5083169;27;20043;-73
2022/05/29 07:38:53;;;;;;;13.57;3.72;;;10.90;99.90;;;;;;5116610;27;20035;-73
2022/05/29 07:44:03;;;;;;;16.85;3.20;;;11.00;99.90;;;;;;5105866;27;20489;-73
2022/05/29 07:46:29;;;;;;;13.07;2.95;;;11.00;99.90;;;;;;5077039;28;20074;-73
2022/05/29 07:48:55;;;;;;;12.57;2.78;;;11.10;99.90;;;;;;5060656;28;20100;-73
2022/05/29 07:51:21;;;;;;;12.23;2.17;;;11.20;99.90;;;;;;5066019;27;20039;-71
2022/05/29 07:53:47;;;;;;;12.05;3.22;;;11.30;99.90;;;;;;5083824;27;20463;-70
2022/05/29 07:56:16;;;;;;;9.57;2.22;;;11.30;99.90;;;;;;5106127;27;20067;-71
2022/05/29 07:58:46;;;;;;;8.68;2.53;;;11.30;99.90;;;;;;5116807;27;20043;-71
2022/05/29 08:01:12;;;;;;;8.90;2.80;;;11.20;99.90;;;;;;5074454;27;20544;-71
2022/05/29 08:03:39;;;;;;;8.98;2.30;;;11.20;99.90;;;;;;5085008;27;20044;-70
2022/05/29 08:06:05;;;;;;;8.93;2.13;;;11.20;99.90;;;;;;5071485;27;20058;-73
2022/05/29 08:08:32;;;;;;;9.15;2.30;;;11.10;99.90;;;;;;5097197;27;20519;-73
2022/05/29 08:10:58;;;;;;;8.55;1.98;;;11.00;99.90;;;;;;5079047;28;20048;-71
2022/05/29 08:13:24;;;;;;;12.05;2.30;;;11.00;99.90;;;;;;5093083;27;20109;-70
2022/05/29 08:15:51;;;;;;;10.00;2.08;;;11.00;99.90;;;;;;5079691;28;20048;-70
2022/05/29 08:18:16;;;;;;;9.05;2.05;;;10.90;99.90;;;;;;5072969;28;20036;-71
2022/05/29 08:20:42;;;;;;;9.18;1.85;;;10.90;99.90;;;;;;5085560;28;20044;-70
2022/05/29 08:23:08;;;;;;;8.02;1.98;;;10.90;99.90;;;;;;5075468;27;20050;-70
2022/05/29 08:30:37;;;;;;;10.18;2.08;;;10.80;99.90;;;;;;5002458;28;20676;-70
2022/05/29 08:31:27;;;;;;;6.43;1.60;;;10.80;99.90;;;;;;5089396;28;20047;-70
2022/05/29 08:33:53;;;;;;;10.55;1.90;;;10.80;99.90;;;;;;5084409;28;20451;-70
2022/05/29 08:36:24;;;;;;;10.98;2.20;;;10.80;99.90;;;;;;5098629;28;20044;-70
2022/05/29 08:38:52;;;;;;;6.97;1.70;;;10.90;99.90;;;;;;5095821;28;20207;-70
2022/05/29 08:41:20;;;;;;;12.45;2.83;;;10.90;99.90;;;;;;5084788;28;20096;-71
2022/05/29 08:44:28;;;;;;;8.02;1.67;;;11.00;99.90;;;;;;5091175;28;20295;-69
2022/05/29 08:47:00;;;;;;;11.43;2.22;;;11.20;99.90;;;;;;5083869;28;20134;-70
2022/05/29 08:49:30;;;;;;;6.45;1.67;;;11.20;99.90;;;;;;5083790;28;20099;-71
2022/05/29 08:52:21;;;;;;;5.45;1.25;;;11.20;99.90;;;;;;5094735;28;20500;-71
2022/05/29 08:55:06;;;;;;;7.00;1.75;;;11.20;99.90;;;;;;5068516;28;20043;-71
2022/05/29 08:57:46;;;;;;;7.25;1.40;;;11.20;99.90;;;;;;5094912;28;20055;-71
2022/05/29 09:00:14;;;;;;;8.85;2.15;;;11.10;99.90;;;;;;5084607;28;20080;-71
2022/05/29 09:03:27;;;;;;;6.10;1.48;;;11.00;99.90;;;;;;5083712;28;20112;-71
2022/05/29 09:06:13;;;;;;;8.35;2.22;;;11.00;99.90;;;;;;5077477;28;20122;-71
2022/05/29 09:08:42;;;;;;;8.45;2.55;;;10.80;99.90;;;;;;5082224;27;20039;-70
2022/05/29 09:11:28;;;;;;;7.10;1.90;;;10.80;99.90;;;;;;5076126;28;20047;-71
2022/05/29 09:14:07;;;;;;;6.30;2.08;;;10.80;99.90;;;;;;5096573;28;20054;-70
2022/05/29 09:16:45;;;;;;;7.55;2.00;;;10.90;99.90;;;;;;5093714;28;20108;-72
2022/05/29 09:19:40;;;;;;;14.85;5.35;;;10.90;99.90;;;;;;5115687;27;20570;-73
2022/05/29 09:22:14;;;;;;;6.70;1.77;;;10.90;99.90;;;;;;5123530;27;20094;-72
2022/05/29 09:25:12;;;;;;;7.28;2.38;;;11.00;99.90;;;;;;5086278;28;20051;-70
2022/05/29 09:27:47;;;;;;;6.93;1.67;;;11.20;99.90;;;;;;5091579;28;20060;-73
2022/05/29 09:30:17;;;;;;;6.57;2.00;;;11.20;99.90;;;;;;5083067;28;20055;-72
2022/05/29 09:33:06;;;;;;;7.88;1.20;;;11.30;99.90;;;;;;5096904;28;20409;-71
2022/05/29 09:35:49;;;;;;;5.68;1.30;;;11.30;99.90;;;;;;5091800;28;20127;-70
2022/05/29 09:38:15;;;;;;;11.93;1.35;;;11.40;99.90;;;;;;5098896;28;20039;-71
2022/05/29 09:40:52;;;;;;;7.20;1.58;;;11.40;99.90;;;;;;5084342;28;20075;-71
2022/05/29 09:43:23;;;;;;;8.90;1.90;;;11.40;99.90;;;;;;5082793;28;20082;-71
2022/05/29 09:45:50;;;;;;;8.40;1.88;;;11.50;99.90;;;;;;5088327;28;20047;-71
2022/05/29 09:51:21;;;;;;;6.40;1.70;;;11.60;99.90;;;;;;5095529;28;20134;-72
2022/05/29 09:53:53;;;;;;;7.10;1.52;;;11.60;99.90;;;;;;5092845;28;20043;-71
2022/05/29 09:56:29;;;;;;;7.53;1.85;;;11.60;99.90;;;;;;5094637;28;20055;-69
2022/05/29 09:59:10;;;;;;;7.35;1.45;;;11.60;99.90;;;;;;5096502;28;20401;-70
2022/05/29 10:01:46;;;;;;;7.85;1.95;;;11.70;99.90;;;;;;5098275;28;20131;-71
2022/05/29 10:04:34;;;;;;;7.28;1.90;;;11.70;99.90;;;;;;5099374;28;20043;-71
2022/05/29 10:07:17;;;;;;;7.72;1.77;;;11.70;99.90;;;;;;5090850;28;20040;-70
2022/05/29 10:10:08;;;;;;;7.50;1.80;;;11.70;99.90;;;;;;5079075;28;20520;-70
2022/05/29 10:12:39;;;;;;;6.45;1.70;;;11.60;99.90;;;;;;5134931;27;20078;-70
2022/05/29 10:15:25;;;;;;;7.85;1.67;;;11.60;99.90;;;;;;5089695;28;20039;-70
2022/05/29 10:18:01;;;;;;;7.38;1.30;;;11.60;99.90;;;;;;5075251;28;20097;-71
2022/05/29 10:20:41;;;;;;;8.55;1.98;;;11.60;99.90;;;;;;5089765;27;20050;-71
2022/05/29 10:23:37;;;;;;;8.23;2.17;;;11.60;99.90;;;;;;5093273;27;20363;-71
2022/05/29 10:26:44;;;;;;;6.70;1.58;;;11.50;99.90;;;;;;5094584;27;20044;-71
2022/05/29 10:29:28;;;;;;;8.02;1.45;;;11.50;99.90;;;;;;5077255;27;20043;-71
2022/05/29 10:31:55;;;;;;;5.53;1.77;;;11.40;99.90;;;;;;5105023;27;20400;-72
2022/05/29 10:34:39;;;;;;;7.82;1.52;;;11.30;99.90;;;;;;5093370;27;20086;-71
2022/05/29 10:37:35;;;;;;;5.68;1.20;;;11.20;99.90;;;;;;5135010;27;20043;-70
2022/05/29 10:40:39;;;;;;;7.13;1.75;;;11.30;99.90;;;;;;5077152;27;20040;-73
2022/05/29 10:43:05;;;;;;;7.63;1.50;;;11.40;99.90;;;;;;5036891;28;20111;-69
2022/05/29 10:45:34;;;;;;;9.07;1.80;;;11.60;99.90;;;;;;5111594;27;20589;-71
2022/05/29 10:48:03;;;;;;;5.10;1.30;;;11.90;99.90;;;;;;5137186;27;20039;-71
2022/05/29 10:51:04;;;;;;;3.75;0.90;;;12.20;99.90;;;;;;5142116;27;20517;-71
2022/05/29 10:53:45;;;;;;;3.72;1.30;;;12.50;99.90;;;;;;5100260;28;20041;-71
2022/05/29 10:56:14;;;;;;;6.63;1.50;;;12.90;99.90;;;;;;5101033;27;20489;-71
2022/05/29 10:58:53;;;;;;;5.80;1.30;;;13.10;99.90;;;;;;5117479;27;20126;-71
2022/05/29 11:04:39;;;;;;;4.88;1.60;;;12.70;99.90;;;;;;5100628;27;20036;-70
2022/05/29 11:07:27;;;;;;;4.88;1.20;;;12.50;99.90;;;;;;5091860;27;20510;-70
2022/05/29 11:10:12;;;;;;;5.28;1.30;;;12.30;99.90;;;;;;5094376;27;20039;-69
2022/05/29 11:13:07;;;;;;;5.97;1.48;;;12.10;99.90;;;;;;5115372;27;20130;-70
2022/05/29 11:15:58;;;;;;;4.70;1.23;;;12.10;99.90;;;;;;5084716;27;20056;-71
2022/05/29 11:18:53;;;;;;;7.45;1.55;;;12.10;99.90;;;;;;5121397;27;20446;-70
2022/05/29 11:21:31;;;;;;;8.63;2.05;;;12.10;99.90;;;;;;5092733;27;20043;-70
2022/05/29 11:24:19;;;;;;;4.65;1.30;;;12.20;99.90;;;;;;5120519;27;20043;-70
2022/05/29 11:27:09;;;;;;;4.55;1.15;;;12.30;99.90;;;;;;5123779;27;20472;-70
2022/05/29 11:29:54;;;;;;;;;;;12.30;99.90;;;;;;5103155;27;20378;-70
2022/05/29 11:32:57;;;;;;;5.88;1.30;;;12.40;99.90;;;;;;5095877;27;19933;-72
2022/05/29 11:35:35;;;;;;;5.50;1.15;;;12.70;99.90;;;;;;5104352;27;20394;-69
2022/05/29 11:38:12;;;;;;;3.67;0.93;;;12.90;99.90;;;;;;5088940;28;20031;-71
2022/05/29 11:40:46;;;;;;;5.95;1.10;;;13.10;99.90;;;;;;5097140;27;20067;-71
2022/05/29 11:43:32;;;;;;;6.20;1.33;;;13.10;99.90;;;;;;5099202;27;20094;-70
2022/05/29 11:52:43;;;;;;;7.43;1.42;;;13.00;99.90;;;;;;5135988;27;20314;-71
2022/05/29 11:55:27;;;;;;;9.82;1.85;;;12.90;99.90;;;;;;5128893;27;20039;-71
2022/05/29 11:58:08;;;;;;;6.72;1.55;;;12.60;99.90;;;;;;5103440;28;20721;-71
2022/05/29 12:00:57;;;;;;;7.38;1.80;;;12.40;99.90;;;;;;5099921;27;20039;-72
2022/05/29 12:03:33;;;;;;;6.15;1.60;;;12.20;99.90;;;;;;5129418;27;20054;-70
2022/05/29 12:06:29;;;;;;;6.20;1.75;;;12.00;99.90;;;;;;5116601;27;20501;-72
2022/05/29 12:09:19;;;;;;;7.15;1.65;;;11.90;99.90;;;;;;5096466;27;20039;-71
2022/05/29 12:11:59;;;;;;;8.23;1.90;;;11.90;99.90;;;;;;5118033;27;20064;-71
2022/05/29 12:14:37;;;;;;;8.52;1.85;;;12.10;99.90;;;;;;5103473;28;20066;-71
2022/05/29 12:17:10;;;;;;;7.07;1.63;;;12.20;99.90;;;;;;5093464;27;20052;-72
2022/05/29 12:19:46;;;;;;;8.40;1.50;;;12.30;99.90;;;;;;5094622;28;20050;-72
2022/05/29 12:22:17;;;;;;;8.20;1.58;;;12.40;99.90;;;;;;5125779;27;20032;-72
2022/05/29 12:24:49;;;;;;;11.20;2.38;;;12.50;99.90;;;;;;5096494;27;20536;-72
2022/05/29 12:27:19;;;;;;;6.78;1.55;;;12.60;99.90;;;;;;5080496;27;20051;-72
2022/05/29 12:29:57;;;;;;;;;;;12.70;99.90;;;;;;5101818;27;20119;-72
2022/05/29 12:32:25;;;;;;;8.07;1.65;;;12.80;99.90;;;;;;5122967;27;20417;-71
2022/05/29 12:34:55;;;;;;;9.90;1.90;;;12.90;99.90;;;;;;5075287;27;20431;-72
2022/05/29 12:37:59;;;;;;;6.60;1.35;;;12.90;99.90;;;;;;5098124;28;20044;-71
2022/05/29 12:40:31;;;;;;;10.43;2.08;;;12.90;99.90;;;;;;5119304;27;20052;-71
2022/05/29 12:43:06;;;;;;;11.68;2.15;;;12.70;99.90;;;;;;5095352;28;20529;-71
2022/05/29 12:45:50;;;;;;;6.93;1.48;;;12.70;99.90;;;;;;5107730;27;20043;-71
2022/05/29 12:48:28;;;;;;;8.35;1.75;;;12.60;99.90;;;;;;5093350;27;20103;-71
2022/05/29 12:51:11;;;;;;;8.57;2.22;;;12.60;99.90;;;;;;5093652;27;20122;-71
2022/05/29 12:53:58;;;;;;;6.72;2.08;;;12.50;99.90;;;;;;5128386;27;20088;-71
2022/05/29 12:56:56;;;;;;;10.07;2.20;;;12.50;99.90;;;;;;5093034;27;20059;-70
2022/05/29 12:59:52;;;;;;;9.68;1.88;;;12.40;99.90;;;;;;5057633;27;20054;-71
2022/05/29 13:02:38;;;;;;;9.70;1.75;;;12.50;99.90;;;;;;5095947;27;20050;-70
2022/05/29 13:05:54;;;;;;;9.15;2.05;;;12.50;99.90;;;;;;5126999;27;20049;-71
2022/05/29 13:08:23;;;;;;;7.03;2.17;;;12.40;99.90;;;;;;5036525;28;20219;-72
2022/05/29 13:10:52;;;;;;;8.80;1.42;;;12.50;99.90;;;;;;5115799;27;20378;-71
2022/05/29 13:13:30;;;;;;;10.70;1.80;;;12.60;99.90;;;;;;5075388;28;20053;-70
2022/05/29 13:16:19;;;;;;;8.30;1.55;;;12.60;99.90;;;;;;5125150;27;20177;-70
2022/05/29 13:19:17;;;;;;;8.70;1.95;;;12.80;99.90;;;;;;5095583;27;20119;-70
2022/05/29 13:22:02;;;;;;;7.40;1.40;;;12.90;99.90;;;;;;5102917;27;20088;-70
2022/05/29 13:24:38;;;;;;;7.32;1.10;;;12.90;99.90;;;;;;5113665;27;20319;-70
2022/05/29 13:27:14;;;;;;;8.13;1.95;;;12.80;99.90;;;;;;5108082;27;20086;-70
2022/05/29 13:29:44;;;;;;;6.65;1.65;;;12.80;99.90;;;;;;5125624;27;20055;-69
2022/05/29 13:32:13;;;;;;;;;;;12.70;99.90;;;;;;5096909;27;20075;-70
2022/05/29 13:34:50;;;;;;;8.38;1.98;;;12.70;99.90;;;;;;5076830;27;19926;-69
2022/05/29 13:38:01;;;;;;;11.38;2.72;;;12.70;99.90;;;;;;5094777;28;20035;-70
2022/05/29 13:40:30;;;;;;;9.75;2.00;;;12.70;99.90;;;;;;5086556;27;20055;-71
2022/05/29 13:43:19;;;;;;;8.32;1.73;;;12.60;99.90;;;;;;5132741;27;20047;-70
2022/05/29 13:45:45;;;;;;;7.95;1.77;;;12.60;99.90;;;;;;5072386;28;20048;-71
2022/05/29 13:48:29;;;;;;;8.57;1.67;;;12.50;99.90;;;;;;5092198;28;20498;-71
2022/05/29 13:50:57;;;;;;;6.00;2.03;;;12.60;99.90;;;;;;5089682;27;20092;-71
2022/05/29 13:53:29;;;;;;;7.72;2.00;;;12.50;99.90;;;;;;5094098;27;20043;-71
2022/05/29 13:56:14;;;;;;;9.95;1.63;;;12.60;99.90;;;;;;5096678;27;20058;-71